AAL3171 KMLB-KDAB
Flight info
| Callsign | AAL3171 |
|---|---|
| Flight time | 0h 23m |
| Altitude | 14000 |
| Route | MALET T208 SMYRA |
| Aircraft | A319/M-SDE3FGHIRWY/LB1 |
Departure
| Time | 2026-04-23 17:04 |
|---|---|
| Airport | Melbourne Orlando International Airport (KMLB) |
Arrival
| Time | 2026-04-23 17:27 |
|---|---|
| Airport | Daytona Beach International Airport (KDAB) |
| Time | Latitude | Longitude | Altitude | Speed | Heading |
|---|---|---|---|---|---|
| 2026-04-23 16:44 | 28.09923 | -80.62999 | 25 ft | 0 kts | 255° |
| 2026-04-23 16:51 | 28.09924 | -80.62997 | 25 ft | 1 kts | 256° |
| 2026-04-23 16:51 | 28.09927 | -80.62981 | 25 ft | 2 kts | 255° |
| 2026-04-23 16:52 | 28.09931 | -80.62965 | 25 ft | 2 kts | 255° |
| 2026-04-23 16:52 | 28.09933 | -80.62948 | 25 ft | 2 kts | 280° |
| 2026-04-23 16:52 | 28.09929 | -80.62933 | 25 ft | 1 kts | 301° |
| 2026-04-23 16:52 | 28.09921 | -80.62925 | 25 ft | 1 kts | 359° |
| 2026-04-23 16:53 | 28.09912 | -80.62927 | 25 ft | 0 kts | 0° |
| 2026-04-23 16:53 | 28.09910 | -80.62927 | 25 ft | 0 kts | 359° |
| 2026-04-23 16:55 | 28.09917 | -80.62927 | 25 ft | 1 kts | 359° |
| 2026-04-23 16:56 | 28.09937 | -80.62931 | 25 ft | 4 kts | 336° |
| 2026-04-23 16:56 | 28.09949 | -80.62936 | 25 ft | 0 kts | 334° |
| 2026-04-23 16:56 | 28.09951 | -80.62938 | 25 ft | 1 kts | 334° |
| 2026-04-23 16:56 | 28.09975 | -80.62966 | 25 ft | 7 kts | 301° |
| 2026-04-23 16:57 | 28.09989 | -80.63035 | 25 ft | 10 kts | 279° |
| 2026-04-23 16:57 | 28.10002 | -80.63126 | 25 ft | 12 kts | 280° |
| 2026-04-23 16:57 | 28.10057 | -80.63205 | 25 ft | 13 kts | 315° |
| 2026-04-23 16:57 | 28.10114 | -80.63294 | 25 ft | 13 kts | 277° |
| 2026-04-23 16:58 | 28.10112 | -80.63405 | 25 ft | 14 kts | 266° |
| 2026-04-23 16:58 | 28.10105 | -80.63534 | 25 ft | 18 kts | 266° |
| 2026-04-23 16:58 | 28.10101 | -80.63685 | 25 ft | 19 kts | 269° |
| 2026-04-23 16:58 | 28.10097 | -80.63841 | 26 ft | 19 kts | 267° |
| 2026-04-23 16:59 | 28.10093 | -80.63988 | 28 ft | 18 kts | 268° |
| 2026-04-23 16:59 | 28.10084 | -80.64137 | 28 ft | 19 kts | 265° |
| 2026-04-23 16:59 | 28.10074 | -80.64289 | 28 ft | 19 kts | 266° |
| 2026-04-23 16:59 | 28.10067 | -80.64440 | 28 ft | 18 kts | 267° |
| 2026-04-23 17:00 | 28.10062 | -80.64600 | 29 ft | 21 kts | 268° |
| 2026-04-23 17:00 | 28.10055 | -80.64762 | 31 ft | 20 kts | 266° |
| 2026-04-23 17:00 | 28.10047 | -80.64923 | 31 ft | 20 kts | 266° |
| 2026-04-23 17:00 | 28.10038 | -80.65086 | 33 ft | 20 kts | 266° |
| 2026-04-23 17:01 | 28.10032 | -80.65239 | 34 ft | 19 kts | 269° |
| 2026-04-23 17:01 | 28.10027 | -80.65396 | 34 ft | 20 kts | 267° |
| 2026-04-23 17:01 | 28.10020 | -80.65554 | 34 ft | 20 kts | 266° |
| 2026-04-23 17:01 | 28.10011 | -80.65726 | 31 ft | 22 kts | 266° |
| 2026-04-23 17:02 | 28.10002 | -80.65890 | 31 ft | 14 kts | 265° |
| 2026-04-23 17:02 | 28.09995 | -80.66008 | 31 ft | 15 kts | 267° |
| 2026-04-23 17:02 | 28.09997 | -80.66074 | 31 ft | 5 kts | 299° |
| 2026-04-23 17:02 | 28.10036 | -80.66093 | 31 ft | 7 kts | 357° |
| 2026-04-23 17:03 | 28.10097 | -80.66096 | 31 ft | 10 kts | 358° |
| 2026-04-23 17:03 | 28.10129 | -80.66090 | 31 ft | 0 kts | 92° |
| 2026-04-23 17:03 | 28.10130 | -80.66074 | 31 ft | 8 kts | 86° |
| 2026-04-23 17:03 | 28.10141 | -80.65829 | 31 ft | 69 kts | 87° |
| 2026-04-23 17:04 | 28.10182 | -80.64990 | 32 ft | 143 kts | 86° |
| 2026-04-23 17:04 | 28.10244 | -80.63728 | 457 ft | 169 kts | 88° |
| 2026-04-23 17:04 | 28.10305 | -80.62444 | 1409 ft | 165 kts | 86° |
| 2026-04-23 17:04 | 28.10383 | -80.61219 | 2340 ft | 161 kts | 82° |
| 2026-04-23 17:05 | 28.10934 | -80.60095 | 2911 ft | 182 kts | 38° |
| 2026-04-23 17:05 | 28.12234 | -80.59779 | 3464 ft | 209 kts | 352° |
| 2026-04-23 17:05 | 28.13645 | -80.60399 | 4058 ft | 229 kts | 337° |
| 2026-04-23 17:05 | 28.15161 | -80.61214 | 4598 ft | 253 kts | 336° |
| 2026-04-23 17:06 | 28.16794 | -80.62068 | 5251 ft | 271 kts | 337° |
| 2026-04-23 17:06 | 28.18562 | -80.62954 | 6072 ft | 283 kts | 338° |
| 2026-04-23 17:06 | 28.20360 | -80.63828 | 7066 ft | 286 kts | 338° |
| 2026-04-23 17:06 | 28.22195 | -80.64704 | 8069 ft | 289 kts | 338° |
| 2026-04-23 17:07 | 28.24063 | -80.65588 | 9042 ft | 293 kts | 338° |
| 2026-04-23 17:07 | 28.25933 | -80.66466 | 9977 ft | 297 kts | 338° |
| 2026-04-23 17:07 | 28.27869 | -80.67371 | 10795 ft | 306 kts | 337° |
| 2026-04-23 17:07 | 28.29867 | -80.68307 | 11317 ft | 323 kts | 337° |
| 2026-04-23 17:08 | 28.32031 | -80.69320 | 11791 ft | 342 kts | 336° |
| 2026-04-23 17:08 | 28.34272 | -80.70370 | 12394 ft | 354 kts | 337° |
| 2026-04-23 17:08 | 28.36529 | -80.71427 | 13160 ft | 356 kts | 336° |
| 2026-04-23 17:08 | 28.38843 | -80.72510 | 13682 ft | 357 kts | 336° |
| 2026-04-23 17:09 | 28.41125 | -80.73579 | 13934 ft | 357 kts | 336° |
| 2026-04-23 17:09 | 28.43433 | -80.74661 | 13956 ft | 356 kts | 336° |
| 2026-04-23 17:09 | 28.45725 | -80.75737 | 13955 ft | 356 kts | 336° |
| 2026-04-23 17:09 | 28.48028 | -80.76818 | 13957 ft | 357 kts | 336° |
| 2026-04-23 17:10 | 28.50331 | -80.77899 | 13961 ft | 356 kts | 336° |
| 2026-04-23 17:10 | 28.52617 | -80.78975 | 13961 ft | 356 kts | 336° |
| 2026-04-23 17:10 | 28.54890 | -80.80045 | 13960 ft | 357 kts | 336° |
| 2026-04-23 17:10 | 28.57218 | -80.81140 | 13962 ft | 357 kts | 336° |
| 2026-04-23 17:11 | 28.59511 | -80.82220 | 13928 ft | 357 kts | 336° |
| 2026-04-23 17:11 | 28.61803 | -80.83300 | 13463 ft | 357 kts | 336° |
| 2026-04-23 17:11 | 28.64086 | -80.84377 | 12957 ft | 355 kts | 336° |
| 2026-04-23 17:11 | 28.66372 | -80.85455 | 12425 ft | 354 kts | 336° |
| 2026-04-23 17:12 | 28.68630 | -80.86517 | 11902 ft | 353 kts | 338° |
| 2026-04-23 17:12 | 28.70939 | -80.87486 | 11356 ft | 353 kts | 340° |
| 2026-04-23 17:12 | 28.73245 | -80.88405 | 10813 ft | 351 kts | 341° |
| 2026-04-23 17:12 | 28.75518 | -80.89302 | 10514 ft | 340 kts | 341° |
| 2026-04-23 17:13 | 28.77721 | -80.90171 | 10322 ft | 327 kts | 341° |
| 2026-04-23 17:13 | 28.79820 | -80.91003 | 10168 ft | 315 kts | 341° |
| 2026-04-23 17:13 | 28.81859 | -80.91813 | 10026 ft | 303 kts | 341° |
| 2026-04-23 17:13 | 28.83836 | -80.92599 | 9664 ft | 300 kts | 342° |
| 2026-04-23 17:14 | 28.85801 | -80.93381 | 9258 ft | 299 kts | 342° |
| 2026-04-23 17:14 | 28.87768 | -80.94165 | 8868 ft | 298 kts | 342° |
| 2026-04-23 17:14 | 28.89714 | -80.94943 | 8504 ft | 296 kts | 341° |
| 2026-04-23 17:14 | 28.91645 | -80.95715 | 8148 ft | 293 kts | 342° |
| 2026-04-23 17:15 | 28.93539 | -80.96473 | 7806 ft | 282 kts | 341° |
| 2026-04-23 17:15 | 28.95390 | -80.97215 | 7456 ft | 279 kts | 341° |
| 2026-04-23 17:15 | 28.97214 | -80.97946 | 7124 ft | 277 kts | 340° |
| 2026-04-23 17:15 | 28.98870 | -80.99049 | 6760 ft | 277 kts | 313° |
| 2026-04-23 17:16 | 28.99786 | -81.00929 | 6429 ft | 273 kts | 282° |
| 2026-04-23 17:16 | 28.99813 | -81.03045 | 6109 ft | 267 kts | 259° |
| 2026-04-23 17:16 | 28.99458 | -81.05125 | 5792 ft | 264 kts | 258° |
| 2026-04-23 17:16 | 28.99151 | -81.07152 | 5477 ft | 259 kts | 261° |
| 2026-04-23 17:17 | 28.98951 | -81.09180 | 5156 ft | 258 kts | 265° |
| 2026-04-23 17:17 | 28.98865 | -81.11243 | 4832 ft | 258 kts | 269° |
| 2026-04-23 17:17 | 28.98894 | -81.13272 | 4527 ft | 257 kts | 272° |
| 2026-04-23 17:17 | 28.99032 | -81.15305 | 4216 ft | 257 kts | 276° |
| 2026-04-23 17:18 | 28.99622 | -81.19337 | 3602 ft | 257 kts | 283° |
| 2026-04-23 17:18 | 29.00068 | -81.21309 | 3298 ft | 257 kts | 287° |
| 2026-04-23 17:18 | 29.00609 | -81.23246 | 3031 ft | 255 kts | 290° |
| 2026-04-23 17:19 | 29.01226 | -81.25086 | 2992 ft | 241 kts | 293° |
| 2026-04-23 17:19 | 29.01887 | -81.26790 | 2957 ft | 228 kts | 296° |
| 2026-04-23 17:19 | 29.02581 | -81.28359 | 2921 ft | 215 kts | 300° |
| 2026-04-23 17:19 | 29.03299 | -81.29807 | 2884 ft | 203 kts | 302° |
| 2026-04-23 17:20 | 29.04037 | -81.31151 | 2854 ft | 198 kts | 305° |
| 2026-04-23 17:20 | 29.05750 | -81.33575 | 2586 ft | 195 kts | 334° |
| 2026-04-23 17:21 | 29.08092 | -81.33230 | 2309 ft | 169 kts | 53° |
| 2026-04-23 17:21 | 29.08511 | -81.32041 | 2079 ft | 161 kts | 81° |
| 2026-04-23 17:21 | 29.08781 | -81.29588 | 1646 ft | 151 kts | 80° |
| 2026-04-23 17:22 | 29.09032 | -81.28463 | 1557 ft | 138 kts | 73° |
| 2026-04-23 17:22 | 29.09727 | -81.26445 | 1559 ft | 136 kts | 68° |
| 2026-04-23 17:23 | 29.10510 | -81.24468 | 1564 ft | 136 kts | 68° |
| 2026-04-23 17:23 | 29.10903 | -81.23486 | 1578 ft | 135 kts | 68° |
| 2026-04-23 17:23 | 29.11695 | -81.21524 | 1567 ft | 135 kts | 68° |
| 2026-04-23 17:24 | 29.12092 | -81.20541 | 1564 ft | 136 kts | 67° |
| 2026-04-23 17:24 | 29.12486 | -81.19568 | 1565 ft | 135 kts | 67° |
| 2026-04-23 17:24 | 29.13279 | -81.17607 | 1565 ft | 136 kts | 67° |
| 2026-04-23 17:25 | 29.14099 | -81.15580 | 1495 ft | 142 kts | 67° |
| 2026-04-23 17:25 | 29.14515 | -81.14551 | 1315 ft | 142 kts | 67° |
| 2026-04-23 17:26 | 29.15346 | -81.12500 | 957 ft | 141 kts | 67° |
| 2026-04-23 17:26 | 29.16170 | -81.10461 | 588 ft | 141 kts | 66° |
| 2026-04-23 17:27 | 29.16989 | -81.08439 | 226 ft | 141 kts | 66° |
| 2026-04-23 17:27 | 29.17402 | -81.07420 | 57 ft | 140 kts | 66° |
| 2026-04-23 17:27 | 29.17788 | -81.06468 | 32 ft | 114 kts | 67° |
| 2026-04-23 17:27 | 29.17984 | -81.05952 | 32 ft | 29 kts | 64° |
| 2026-04-23 17:28 | 29.18085 | -81.05820 | 35 ft | 17 kts | 38° |
| 2026-04-23 17:28 | 29.18167 | -81.05769 | 34 ft | 11 kts | 3° |
| 2026-04-23 17:28 | 29.18203 | -81.05825 | 35 ft | 10 kts | 244° |
| 2026-04-23 17:28 | 29.18165 | -81.05910 | 33 ft | 16 kts | 242° |
| 2026-04-23 17:29 | 29.18108 | -81.06041 | 31 ft | 19 kts | 246° |
| 2026-04-23 17:29 | 29.18094 | -81.06134 | 31 ft | 10 kts | 324° |
| 2026-04-23 17:29 | 29.18234 | -81.06222 | 31 ft | 12 kts | 336° |
| 2026-04-23 17:30 | 29.18325 | -81.06217 | 31 ft | 13 kts | 11° |
| 2026-04-23 17:30 | 29.18396 | -81.06184 | 31 ft | 3 kts | 104° |
| 2026-04-23 17:30 | 29.18390 | -81.06150 | 31 ft | 5 kts | 101° |
| 2026-04-23 17:31 | 29.18388 | -81.06133 | 31 ft | 0 kts | 98° |